You are not logged in, Click here to log in
ICAO: RJBB Country: 日本大阪灣東南部的泉州近海離岸5公里的人工島
Latitude: 34.4341 Longitude: 135.243
Total Arrivals: 185 Total Departures: 170
Latest Arrival: BR132 (RCTP-RJBB)ALAN. LIU Latest Departure: BR129 (RJBB-RCTP)ALAN. LIU
Scenery:
METAR : RJBB 171300Z VRB02KT 9999 FEW040 SCT/// 21/17 Q1013 NOSIG

関西国際空港 KIX